Time;durP1;ratioP1;P1;durP2;ratioP2;P2;SDS_P1;SDS_P2;PMS_P1;PMS_P2;Temp;Humidity;BMP_temperature;BMP_pressure;BME280_temperature;BME280_humidity;BME280_pressure;Samples;Min_cycle;Max_cycle;Signal;HPM_P1;HPM_P2
2022/12/04 00:01:02;;;;;;;5.82;4.32;;;;;;;;;;5093970;28;20358;-44
2022/12/04 00:03:28;;;;;;;6.72;4.15;;;;;;;;;;5096450;28;20161;-44
2022/12/04 00:06:01;;;;;;;6.50;3.97;;;;;;;;;;5091292;28;20447;-47
2022/12/04 00:08:27;;;;;;;6.07;4.00;;;;;;;;;;5095662;28;20033;-44
2022/12/04 00:10:53;;;;;;;6.75;4.38;;;;;;;;;;5085483;28;20031;-47
2022/12/04 00:13:19;;;;;;;6.50;4.22;;;;;;;;;;5080437;28;20109;-45
2022/12/04 00:15:45;;;;;;;5.53;3.70;;;;;;;;;;5075157;28;20107;-44
2022/12/04 00:18:11;;;;;;;6.05;4.07;;;;;;;;;;5083427;28;20040;-45
2022/12/04 00:20:40;;;;;;;5.85;3.88;;;;;;;;;;5084845;28;20024;-45
2022/12/04 00:23:06;;;;;;;5.70;4.78;;;;;;;;;;5082219;28;20107;-45
2022/12/04 00:25:32;;;;;;;6.00;4.05;;;;;;;;;;5099449;28;20469;-44
2022/12/04 00:27:58;;;;;;;5.93;4.10;;;;;;;;;;5100734;28;20035;-45
2022/12/04 00:30:24;;;;;;;5.68;4.18;;;;;;;;;;5101560;28;20077;-45
2022/12/04 00:32:50;;;;;;;6.35;4.00;;;;;;;;;;5091286;28;20549;-47
2022/12/04 00:35:16;;;;;;;5.05;4.15;;;;;;;;;;5101601;28;20016;-45
2022/12/04 00:37:42;;;;;;;6.63;4.72;;;;;;;;;;5090393;28;20085;-44
2022/12/04 00:40:08;;;;;;;6.72;4.38;;;;;;;;;;5101785;28;20366;-46
2022/12/04 00:42:34;;;;;;;6.40;4.70;;;;;;;;;;5093631;28;20042;-46
2022/12/04 00:45:00;;;;;;;6.50;3.97;;;;;;;;;;5097823;28;20439;-45
2022/12/04 00:47:26;;;;;;;7.57;4.45;;;;;;;;;;5081231;28;20032;-45
2022/12/04 00:49:52;;;;;;;8.63;4.55;;;;;;;;;;5094777;28;20024;-47
2022/12/04 00:52:18;;;;;;;7.35;4.22;;;;;;;;;;5085037;28;20473;-45
2022/12/04 00:54:44;;;;;;;6.20;4.57;;;;;;;;;;5081600;28;20105;-45
2022/12/04 00:57:10;;;;;;;6.13;4.25;;;;;;;;;;5078053;28;20032;-45
2022/12/04 00:59:37;;;;;;;6.50;4.53;;;;;;;;;;5090261;28;20028;-45
2022/12/04 01:02:03;;;;;;;5.32;3.83;;;;;;;;;;5078078;28;20452;-47
2022/12/04 01:04:29;;;;;;;5.60;3.92;;;;;;;;;;5080547;28;20028;-45
2022/12/04 01:06:55;;;;;;;5.05;3.22;;;;;;;;;;5074224;28;20021;-47
2022/12/04 01:09:21;;;;;;;7.00;3.88;;;;;;;;;;5087179;28;20024;-45
2022/12/04 01:11:47;;;;;;;6.22;4.00;;;;;;;;;;5089727;28;20036;-45
2022/12/04 01:14:13;;;;;;;5.18;3.78;;;;;;;;;;5090233;28;20028;-45
2022/12/04 01:16:40;;;;;;;10.63;3.72;;;;;;;;;;5091328;28;20020;-45
2022/12/04 01:19:07;;;;;;;4.57;3.63;;;;;;;;;;5081577;28;20048;-45
2022/12/04 01:21:33;;;;;;;5.13;3.78;;;;;;;;;;5084054;28;20044;-45
2022/12/04 01:23:59;;;;;;;6.78;4.25;;;;;;;;;;5086153;28;20027;-45
2022/12/04 01:26:26;;;;;;;6.50;4.43;;;;;;;;;;5091326;28;20027;-45
2022/12/04 01:28:52;;;;;;;6.00;3.88;;;;;;;;;;5090893;28;20032;-47
2022/12/04 01:31:19;;;;;;;5.28;3.72;;;;;;;;;;5090103;28;20109;-45
2022/12/04 01:33:45;;;;;;;5.30;3.70;;;;;;;;;;5090091;28;20024;-45
2022/12/04 01:36:13;;;;;;;5.25;3.88;;;;;;;;;;5090132;28;20027;-45
2022/12/04 01:38:39;;;;;;;5.38;3.38;;;;;;;;;;5087133;28;20024;-45
2022/12/04 01:41:05;;;;;;;6.38;3.72;;;;;;;;;;5090608;28;20021;-45
2022/12/04 01:43:32;;;;;;;6.15;3.70;;;;;;;;;;5088999;28;20082;-45
2022/12/04 01:45:59;;;;;;;5.22;3.65;;;;;;;;;;5089611;28;20019;-45
2022/12/04 01:48:31;;;;;;;6.55;3.60;;;;;;;;;;5087396;28;20119;-45
2022/12/04 01:51:03;;;;;;;5.57;3.85;;;;;;;;;;5085161;28;20535;-46
2022/12/04 01:53:30;;;;;;;4.82;3.60;;;;;;;;;;5081685;28;20402;-45
2022/12/04 01:55:56;;;;;;;5.65;3.72;;;;;;;;;;5085575;28;20039;-47
2022/12/04 01:58:26;;;;;;;5.03;3.10;;;;;;;;;;5097725;28;20032;-45
2022/12/04 02:00:54;;;;;;;5.05;3.60;;;;;;;;;;5090188;28;20465;-48
2022/12/04 02:03:20;;;;;;;5.18;4.25;;;;;;;;;;5092797;28;20107;-46
2022/12/04 02:05:46;;;;;;;4.80;3.90;;;;;;;;;;5091810;28;20120;-46
2022/12/04 02:08:12;;;;;;;4.68;3.20;;;;;;;;;;5090504;28;20028;-46
2022/12/04 02:10:50;;;;;;;4.68;3.00;;;;;;;;;;5091882;28;20032;-46
2022/12/04 02:13:16;;;;;;;8.38;4.00;;;;;;;;;;5087299;28;20023;-46
2022/12/04 02:15:41;;;;;;;4.38;3.22;;;;;;;;;;5092997;28;20035;-46
2022/12/04 02:18:26;;;;;;;4.95;3.60;;;;;;;;;;5090629;28;20491;-47
2022/12/04 02:21:01;;;;;;;4.78;3.50;;;;;;;;;;5088759;28;20046;-49
2022/12/04 02:23:48;;;;;;;6.28;3.88;;;;;;;;;;5078514;28;20500;-47
2022/12/04 02:26:23;;;;;;;5.28;3.42;;;;;;;;;;5082363;28;20039;-47
2022/12/04 02:28:52;;;;;;;5.13;3.80;;;;;;;;;;5091577;28;20023;-46
2022/12/04 02:31:21;;;;;;;5.72;3.70;;;;;;;;;;5090291;28;20027;-47
2022/12/04 02:33:56;;;;;;;5.25;3.38;;;;;;;;;;5089960;28;20099;-46
2022/12/04 02:36:24;;;;;;;4.93;3.35;;;;;;;;;;5090402;28;20058;-47
2022/12/04 02:38:53;;;;;;;3.58;3.00;;;;;;;;;;5091530;28;20016;-46
2022/12/04 02:41:42;;;;;;;3.85;3.00;;;;;;;;;;5091048;28;20028;-46
2022/12/04 02:44:12;;;;;;;4.60;3.40;;;;;;;;;;5068907;28;20039;-46
2022/12/04 02:46:39;;;;;;;4.32;3.50;;;;;;;;;;5090228;28;20028;-46
2022/12/04 02:49:07;;;;;;;4.78;3.72;;;;;;;;;;5090080;28;20028;-46
2022/12/04 02:51:35;;;;;;;5.03;3.28;;;;;;;;;;5091283;28;20077;-46
2022/12/04 02:54:07;;;;;;;4.85;3.40;;;;;;;;;;5084604;28;20135;-46
2022/12/04 02:56:36;;;;;;;4.03;2.75;;;;;;;;;;5091460;28;20020;-46
2022/12/04 02:59:05;;;;;;;5.07;3.35;;;;;;;;;;5084703;28;20034;-46
2022/12/04 03:01:33;;;;;;;4.53;3.08;;;;;;;;;;5088933;28;20044;-46
2022/12/04 03:04:09;;;;;;;4.70;3.70;;;;;;;;;;5080550;28;20381;-46
2022/12/04 03:06:36;;;;;;;5.78;4.05;;;;;;;;;;5075209;28;20024;-46
2022/12/04 03:09:05;;;;;;;6.47;3.25;;;;;;;;;;5074676;28;20078;-47
2022/12/04 03:11:33;;;;;;;4.05;3.35;;;;;;;;;;5076407;28;20060;-46
2022/12/04 03:14:01;;;;;;;5.97;3.75;;;;;;;;;;5075253;28;20524;-48
2022/12/04 03:16:30;;;;;;;5.25;3.67;;;;;;;;;;5074534;28;20382;-47
2022/12/04 03:18:58;;;;;;;4.20;3.28;;;;;;;;;;5072877;28;20037;-46
2022/12/04 03:21:28;;;;;;;4.57;3.40;;;;;;;;;;5091301;28;20032;-47
2022/12/04 03:24:00;;;;;;;4.47;3.55;;;;;;;;;;5093018;28;20024;-49
2022/12/04 03:26:35;;;;;;;6.07;3.88;;;;;;;;;;5091121;28;20021;-46
2022/12/04 03:29:20;;;;;;;4.38;3.20;;;;;;;;;;5078750;28;20083;-46
2022/12/04 03:32:05;;;;;;;5.25;3.40;;;;;;;;;;5077923;28;20040;-47
2022/12/04 03:34:51;;;;;;;4.35;3.35;;;;;;;;;;5076759;28;20099;-47
2022/12/04 03:37:19;;;;;;;4.32;3.22;;;;;;;;;;5066200;28;20042;-46
2022/12/04 03:39:54;;;;;;;5.95;4.15;;;;;;;;;;5076897;28;20025;-46
2022/12/04 03:42:25;;;;;;;5.57;3.33;;;;;;;;;;5074354;28;20064;-47
2022/12/04 03:44:57;;;;;;;5.57;3.63;;;;;;;;;;5079462;28;20024;-49
2022/12/04 03:47:29;;;;;;;4.88;3.67;;;;;;;;;;5080604;28;20085;-46
2022/12/04 03:50:13;;;;;;;4.63;3.47;;;;;;;;;;5081164;28;20027;-48
2022/12/04 03:52:56;;;;;;;6.63;4.38;;;;;;;;;;5083639;28;20105;-47
2022/12/04 03:55:42;;;;;;;4.88;3.17;;;;;;;;;;5038553;28;20044;-47
2022/12/04 03:58:10;;;;;;;4.22;2.95;;;;;;;;;;5041147;28;20485;-46
2022/12/04 04:00:39;;;;;;;5.00;3.42;;;;;;;;;;5038842;28;20022;-46
2022/12/04 04:03:27;;;;;;;4.57;3.45;;;;;;;;;;5041930;28;20048;-47
2022/12/04 04:05:54;;;;;;;4.32;3.10;;;;;;;;;;5042555;28;20030;-49
2022/12/04 04:08:26;;;;;;;4.28;3.28;;;;;;;;;;5041328;28;20040;-46
2022/12/04 04:10:53;;;;;;;4.78;3.45;;;;;;;;;;5045812;28;20021;-49
2022/12/04 04:24:43;;;;;;;5.93;3.78;;;;;;;;;;5052976;28;20083;-44
2022/12/04 04:27:09;;;;;;;4.60;3.25;;;;;;;;;;5024717;28;20036;-46
2022/12/04 04:29:36;;;;;;;4.85;3.45;;;;;;;;;;5062507;28;20024;-44
2022/12/04 04:32:13;;;;;;;4.55;3.50;;;;;;;;;;5051839;28;20052;-44
2022/12/04 04:34:58;;;;;;;4.95;3.90;;;;;;;;;;5053561;28;20025;-44
2022/12/04 04:37:33;;;;;;;4.47;3.10;;;;;;;;;;5052963;28;20103;-44
2022/12/04 04:40:12;;;;;;;5.15;3.75;;;;;;;;;;5035427;28;20525;-44
2022/12/04 04:42:43;;;;;;;5.53;4.28;;;;;;;;;;5046091;28;20068;-44
2022/12/04 04:45:24;;;;;;;3.88;3.03;;;;;;;;;;5055067;28;20044;-43
2022/12/04 04:47:53;;;;;;;4.43;3.45;;;;;;;;;;5041582;28;20028;-44
2022/12/04 04:50:20;;;;;;;6.03;4.15;;;;;;;;;;5033588;28;20025;-44
2022/12/04 04:52:49;;;;;;;3.75;3.35;;;;;;;;;;5039206;28;20474;-44
2022/12/04 04:55:16;;;;;;;5.05;3.47;;;;;;;;;;5071791;28;20027;-43
2022/12/04 04:57:42;;;;;;;4.63;3.67;;;;;;;;;;5069719;28;23790;-44
2022/12/04 05:00:10;;;;;;;5.18;3.60;;;;;;;;;;5058402;28;20108;-44
2022/12/04 05:02:36;;;;;;;4.75;3.50;;;;;;;;;;5058786;28;20079;-44
2022/12/04 05:05:02;;;;;;;5.43;3.38;;;;;;;;;;5058720;28;20048;-45
2022/12/04 05:07:28;;;;;;;4.85;3.58;;;;;;;;;;5056268;28;20028;-44
2022/12/04 05:09:54;;;;;;;5.22;3.90;;;;;;;;;;5054437;28;21345;-46
2022/12/04 05:12:20;;;;;;;4.43;3.42;;;;;;;;;;5055144;28;20055;-43
2022/12/04 05:14:46;;;;;;;4.20;3.25;;;;;;;;;;5056174;28;20075;-44
2022/12/04 05:17:12;;;;;;;6.20;4.00;;;;;;;;;;5055523;28;20686;-44
2022/12/04 05:19:54;;;;;;;4.43;3.28;;;;;;;;;;5057845;28;20024;-44
2022/12/04 05:22:21;;;;;;;4.55;3.10;;;;;;;;;;5071284;28;21689;-44
2022/12/04 05:24:47;;;;;;;4.97;3.67;;;;;;;;;;5072763;28;20029;-44
2022/12/04 05:27:13;;;;;;;4.28;3.08;;;;;;;;;;5070303;28;20024;-45
2022/12/04 05:29:39;;;;;;;5.43;3.85;;;;;;;;;;5058236;28;20025;-45
2022/12/04 05:32:05;;;;;;;4.55;3.55;;;;;;;;;;5055055;28;20032;-44
2022/12/04 05:34:31;;;;;;;3.60;2.95;;;;;;;;;;5054292;28;20021;-44
2022/12/04 05:36:57;;;;;;;4.00;3.33;;;;;;;;;;5055012;28;20138;-44
2022/12/04 05:39:23;;;;;;;4.32;3.10;;;;;;;;;;5054951;28;20151;-46
2022/12/04 05:41:49;;;;;;;7.22;4.10;;;;;;;;;;5055135;28;20033;-45
2022/12/04 05:44:15;;;;;;;4.70;3.55;;;;;;;;;;5056386;28;20359;-44
2022/12/04 05:46:41;;;;;;;5.00;3.88;;;;;;;;;;5053705;28;20029;-44
2022/12/04 05:49:07;;;;;;;4.80;3.50;;;;;;;;;;5055778;28;20029;-44
2022/12/04 05:51:33;;;;;;;4.05;3.30;;;;;;;;;;5057831;28;20028;-44
2022/12/04 05:53:59;;;;;;;3.90;3.25;;;;;;;;;;5055873;28;20048;-45
2022/12/04 05:56:25;;;;;;;5.28;3.50;;;;;;;;;;5060887;28;20044;-44
2022/12/04 05:58:51;;;;;;;4.30;3.53;;;;;;;;;;5060547;28;20034;-46
2022/12/04 06:01:19;;;;;;;4.40;3.38;;;;;;;;;;5058632;28;20173;-44
2022/12/04 06:03:45;;;;;;;4.70;3.58;;;;;;;;;;5056198;28;20021;-43
2022/12/04 06:06:15;;;;;;;4.30;3.30;;;;;;;;;;5056106;28;20032;-44
2022/12/04 06:08:41;;;;;;;4.50;3.20;;;;;;;;;;5058005;28;20025;-44
2022/12/04 06:11:11;;;;;;;4.35;3.22;;;;;;;;;;5058234;28;20457;-44
2022/12/04 06:13:37;;;;;;;3.80;2.83;;;;;;;;;;5059441;28;20397;-44
2022/12/04 06:16:03;;;;;;;5.35;3.78;;;;;;;;;;5059926;28;20021;-43
2022/12/04 06:18:29;;;;;;;4.25;3.00;;;;;;;;;;5071550;28;20098;-45
2022/12/04 06:20:57;;;;;;;4.32;3.08;;;;;;;;;;5058381;28;20020;-46
2022/12/04 06:23:23;;;;;;;4.57;3.00;;;;;;;;;;5068729;28;20172;-44
2022/12/04 06:25:49;;;;;;;5.40;3.53;;;;;;;;;;5070656;28;20119;-44
2022/12/04 06:28:15;;;;;;;4.80;3.55;;;;;;;;;;5068604;28;20016;-44
2022/12/04 06:30:41;;;;;;;4.03;3.50;;;;;;;;;;5067675;28;20027;-44
2022/12/04 06:33:07;;;;;;;4.07;2.90;;;;;;;;;;5060138;28;20116;-44
2022/12/04 06:35:33;;;;;;;3.55;2.80;;;;;;;;;;5062609;28;20116;-44
2022/12/04 06:37:59;;;;;;;4.85;3.42;;;;;;;;;;5055773;28;20086;-44
2022/12/04 06:40:25;;;;;;;4.68;3.33;;;;;;;;;;5060421;28;20032;-44
2022/12/04 06:42:51;;;;;;;4.05;3.13;;;;;;;;;;5062407;28;20043;-46
2022/12/04 06:45:17;;;;;;;4.28;2.97;;;;;;;;;;5059750;28;20406;-45
2022/12/04 06:47:43;;;;;;;4.53;3.25;;;;;;;;;;5055406;28;20024;-45
2022/12/04 06:50:09;;;;;;;5.32;3.50;;;;;;;;;;5052283;28;20069;-46
2022/12/04 06:52:35;;;;;;;4.50;3.38;;;;;;;;;;5047185;28;20044;-44
2022/12/04 06:55:01;;;;;;;5.03;3.50;;;;;;;;;;5059931;28;20094;-44
2022/12/04 06:57:27;;;;;;;4.38;3.22;;;;;;;;;;5056034;28;20033;-46
2022/12/04 06:59:53;;;;;;;4.25;3.05;;;;;;;;;;5060282;28;20428;-49
2022/12/04 07:02:19;;;;;;;5.22;3.65;;;;;;;;;;5059313;28;20101;-45
2022/12/04 07:04:45;;;;;;;4.63;3.38;;;;;;;;;;5064678;28;20025;-46
2022/12/04 07:07:11;;;;;;;3.92;3.03;;;;;;;;;;5064926;28;20033;-46
2022/12/04 07:09:37;;;;;;;4.68;3.38;;;;;;;;;;5064318;28;20129;-46
2022/12/04 07:12:03;;;;;;;4.57;3.47;;;;;;;;;;5065192;28;20048;-46
2022/12/04 07:14:29;;;;;;;3.63;2.83;;;;;;;;;;5069116;28;20031;-46
2022/12/04 07:16:55;;;;;;;4.75;3.20;;;;;;;;;;5064498;28;20404;-48
2022/12/04 07:19:21;;;;;;;5.25;2.97;;;;;;;;;;5067904;28;20540;-46
2022/12/04 07:21:47;;;;;;;3.85;3.08;;;;;;;;;;5065764;28;20036;-46
2022/12/04 07:24:15;;;;;;;4.18;2.80;;;;;;;;;;5072516;28;20036;-46
2022/12/04 07:26:41;;;;;;;4.60;3.30;;;;;;;;;;5062235;28;20029;-47
2022/12/04 07:29:09;;;;;;;4.15;3.17;;;;;;;;;;5068714;28;20028;-47
2022/12/04 07:31:35;;;;;;;5.00;3.15;;;;;;;;;;5057750;28;20062;-46
2022/12/04 07:34:01;;;;;;;4.75;3.38;;;;;;;;;;5068429;28;20024;-46
2022/12/04 07:36:27;;;;;;;3.67;2.95;;;;;;;;;;5062740;28;20021;-46
2022/12/04 07:38:56;;;;;;;4.85;3.70;;;;;;;;;;5060712;28;20296;-48
2022/12/04 07:41:23;;;;;;;3.67;2.95;;;;;;;;;;5058262;28;20025;-45
2022/12/04 07:43:49;;;;;;;4.82;2.95;;;;;;;;;;5072565;28;20078;-47
2022/12/04 07:46:19;;;;;;;5.05;2.90;;;;;;;;;;5067898;28;20124;-45
2022/12/04 07:48:45;;;;;;;5.03;3.55;;;;;;;;;;5067421;28;20051;-46
2022/12/04 07:51:13;;;;;;;4.03;3.25;;;;;;;;;;5065686;28;20084;-46
2022/12/04 07:53:39;;;;;;;4.28;3.35;;;;;;;;;;5065630;28;20129;-46
2022/12/04 07:56:06;;;;;;;3.88;3.25;;;;;;;;;;5066227;28;20021;-46
2022/12/04 07:58:32;;;;;;;4.00;2.72;;;;;;;;;;5072029;28;20040;-46
2022/12/04 08:01:08;;;;;;;4.50;3.20;;;;;;;;;;5070263;28;20028;-48
2022/12/04 08:03:35;;;;;;;3.38;2.80;;;;;;;;;;5071053;28;20037;-46
2022/12/04 08:06:04;;;;;;;4.18;2.97;;;;;;;;;;5067154;28;20013;-46
2022/12/04 08:08:30;;;;;;;5.10;3.17;;;;;;;;;;5066363;28;20033;-46
2022/12/04 08:10:57;;;;;;;4.97;3.10;;;;;;;;;;5069859;28;20033;-48
2022/12/04 08:13:23;;;;;;;4.22;3.08;;;;;;;;;;5072789;28;20041;-46
2022/12/04 08:15:49;;;;;;;4.38;3.15;;;;;;;;;;5069836;28;20025;-46
2022/12/04 08:18:15;;;;;;;3.72;3.05;;;;;;;;;;5069376;28;20107;-46
2022/12/04 08:20:41;;;;;;;4.22;3.30;;;;;;;;;;5066250;28;20462;-47
2022/12/04 08:23:07;;;;;;;3.78;2.85;;;;;;;;;;5061081;28;20028;-46
2022/12/04 08:25:33;;;;;;;4.10;3.47;;;;;;;;;;5071649;28;20043;-46
2022/12/04 08:27:59;;;;;;;5.43;3.70;;;;;;;;;;5058811;28;20175;-46
2022/12/04 08:30:25;;;;;;;4.50;3.25;;;;;;;;;;5068489;28;20187;-47
2022/12/04 08:32:51;;;;;;;5.30;3.45;;;;;;;;;;5061167;28;20094;-46
2022/12/04 08:35:17;;;;;;;4.10;2.78;;;;;;;;;;5065983;28;20892;-46
2022/12/04 08:37:43;;;;;;;3.40;2.90;;;;;;;;;;5060363;28;20040;-47
2022/12/04 08:40:10;;;;;;;4.93;3.08;;;;;;;;;;5071901;28;20052;-46
2022/12/04 08:42:36;;;;;;;3.97;2.85;;;;;;;;;;5062586;28;20036;-48
2022/12/04 08:45:02;;;;;;;4.45;3.08;;;;;;;;;;5074169;28;20312;-46
2022/12/04 08:47:28;;;;;;;3.92;2.80;;;;;;;;;;5067522;28;20039;-46
2022/12/04 08:49:54;;;;;;;3.95;2.90;;;;;;;;;;5041079;28;20020;-49
2022/12/04 08:52:20;;;;;;;4.57;2.60;;;;;;;;;;5060457;28;20036;-47
2022/12/04 08:54:46;;;;;;;5.13;3.55;;;;;;;;;;5070426;28;20497;-47
2022/12/04 08:57:12;;;;;;;5.95;3.35;;;;;;;;;;5067747;28;20082;-46
2022/12/04 08:59:38;;;;;;;14.63;3.85;;;;;;;;;;5070808;28;20495;-47
2022/12/04 09:02:04;;;;;;;4.65;2.78;;;;;;;;;;5069629;28;20027;-46
2022/12/04 09:04:30;;;;;;;4.95;3.00;;;;;;;;;;5071798;28;20033;-47
2022/12/04 09:06:56;;;;;;;3.80;2.45;;;;;;;;;;5053321;28;20032;-48
2022/12/04 09:09:22;;;;;;;3.58;2.90;;;;;;;;;;5064096;28;20417;-48
2022/12/04 09:11:48;;;;;;;3.45;2.65;;;;;;;;;;5056942;28;20094;-47
2022/12/04 09:14:14;;;;;;;5.85;3.00;;;;;;;;;;5069669;27;20040;-46
2022/12/04 09:16:40;;;;;;;5.68;3.10;;;;;;;;;;5069218;28;20025;-46
2022/12/04 09:19:06;;;;;;;4.38;3.25;;;;;;;;;;5066750;28;20037;-46
2022/12/04 09:21:32;;;;;;;4.20;2.90;;;;;;;;;;5061402;28;20025;-46
2022/12/04 09:23:59;;;;;;;4.25;2.78;;;;;;;;;;5068021;28;20082;-46
2022/12/04 09:26:29;;;;;;;4.00;2.90;;;;;;;;;;5061773;28;20478;-45
2022/12/04 09:28:55;;;;;;;3.83;2.80;;;;;;;;;;5062457;28;20061;-48
2022/12/04 09:31:22;;;;;;;3.53;2.63;;;;;;;;;;5061867;28;20035;-47
2022/12/04 09:33:48;;;;;;;4.30;3.05;;;;;;;;;;5070185;28;20036;-45
2022/12/04 09:36:17;;;;;;;6.75;2.92;;;;;;;;;;5054468;28;20036;-39
2022/12/04 09:38:44;;;;;;;7.40;2.60;;;;;;;;;;5058872;28;20059;-45
2022/12/04 09:41:27;;;;;;;6.07;3.33;;;;;;;;;;5058288;28;20021;-44
2022/12/04 09:43:59;;;;;;;4.88;2.90;;;;;;;;;;5053831;28;20041;-46
2022/12/04 09:46:48;;;;;;;6.07;4.03;;;;;;;;;;5054983;28;20044;-43
2022/12/04 09:49:29;;;;;;;3.63;2.75;;;;;;;;;;5067921;28;20486;-46
2022/12/04 09:51:57;;;;;;;5.50;3.00;;;;;;;;;;5058303;28;20104;-46
2022/12/04 09:54:26;;;;;;;9.35;3.33;;;;;;;;;;5069025;28;20052;-42
2022/12/04 09:56:59;;;;;;;5.72;3.00;;;;;;;;;;5059164;28;20021;-46
2022/12/04 09:59:26;;;;;;;4.55;2.65;;;;;;;;;;5070530;28;20380;-42
2022/12/04 10:02:11;;;;;;;5.10;3.10;;;;;;;;;;5058226;28;20096;-46
2022/12/04 10:04:37;;;;;;;5.60;3.08;;;;;;;;;;5060502;28;20040;-46
2022/12/04 10:07:15;;;;;;;4.30;2.70;;;;;;;;;;5065639;28;20027;-44
2022/12/04 10:09:44;;;;;;;5.75;2.70;;;;;;;;;;5053629;28;20108;-44
2022/12/04 10:12:19;;;;;;;3.75;2.75;;;;;;;;;;5053678;28;20052;-43
2022/12/04 10:15:24;;;;;;;5.00;3.60;;;;;;;;;;5070473;28;20078;-44
2022/12/04 10:18:08;;;;;;;4.13;3.10;;;;;;;;;;5025408;28;20033;-43
2022/12/04 10:20:34;;;;;;;3.25;2.55;;;;;;;;;;5023040;28;20041;-44
2022/12/04 10:23:18;;;;;;;5.47;2.70;;;;;;;;;;5033818;28;20043;-44
2022/12/04 10:25:44;;;;;;;4.43;3.30;;;;;;;;;;5027210;28;20038;-44
2022/12/04 10:28:22;;;;;;;5.53;2.85;;;;;;;;;;5026246;28;20074;-44
2022/12/04 10:30:50;;;;;;;4.63;3.00;;;;;;;;;;5025612;28;20052;-44
2022/12/04 10:33:27;;;;;;;4.53;3.05;;;;;;;;;;5027239;28;20091;-43
2022/12/04 10:35:55;;;;;;;3.90;3.00;;;;;;;;;;5028545;28;20449;-46
2022/12/04 10:38:37;;;;;;;3.47;2.78;;;;;;;;;;5024406;28;20037;-43
2022/12/04 10:41:22;;;;;;;5.30;3.45;;;;;;;;;;5026293;28;20033;-45
2022/12/04 10:43:49;;;;;;;4.15;2.85;;;;;;;;;;5028759;28;20033;-44
2022/12/04 10:46:18;;;;;;;4.47;2.97;;;;;;;;;;5022639;28;20098;-44
2022/12/04 10:48:46;;;;;;;4.03;3.15;;;;;;;;;;5053549;28;20047;-44
2022/12/04 10:51:20;;;;;;;4.60;3.00;;;;;;;;;;5063674;28;20712;-44
2022/12/04 10:53:48;;;;;;;7.28;3.25;;;;;;;;;;5061956;28;20057;-44
2022/12/04 10:56:17;;;;;;;4.93;2.85;;;;;;;;;;5047778;28;20940;-43
2022/12/04 10:58:43;;;;;;;4.68;2.95;;;;;;;;;;5054653;28;20021;-44
2022/12/04 11:01:14;;;;;;;4.35;3.20;;;;;;;;;;5049911;28;20071;-43
2022/12/04 11:03:43;;;;;;;4.93;3.05;;;;;;;;;;5044623;28;20519;-45
2022/12/04 11:06:10;;;;;;;4.65;3.00;;;;;;;;;;5047049;28;20076;-44
2022/12/04 11:08:41;;;;;;;5.93;2.85;;;;;;;;;;5048636;28;20025;-43
2022/12/04 11:11:10;;;;;;;7.50;3.38;;;;;;;;;;5047853;28;20494;-43
2022/12/04 11:13:36;;;;;;;3.90;2.85;;;;;;;;;;5046000;28;20517;-43
2022/12/04 11:16:03;;;;;;;4.53;3.40;;;;;;;;;;5050117;28;20048;-44
2022/12/04 11:18:31;;;;;;;6.70;3.20;;;;;;;;;;5054069;28;20021;-43
2022/12/04 11:21:26;;;;;;;5.95;3.38;;;;;;;;;;5046919;28;20025;-45
2022/12/04 11:23:52;;;;;;;3.70;2.83;;;;;;;;;;5050747;28;20112;-46
2022/12/04 11:26:29;;;;;;;6.22;3.25;;;;;;;;;;5053525;28;20098;-43
2022/12/04 11:28:57;;;;;;;3.80;2.78;;;;;;;;;;5043082;28;20030;-47
2022/12/04 11:31:24;;;;;;;5.00;2.97;;;;;;;;;;5044868;28;20048;-44
2022/12/04 11:33:55;;;;;;;4.22;2.85;;;;;;;;;;5047116;28;20032;-44
2022/12/04 11:36:23;;;;;;;4.50;3.22;;;;;;;;;;5042231;28;20045;-45
2022/12/04 11:38:50;;;;;;;5.10;3.33;;;;;;;;;;5040897;28;20072;-44
2022/12/04 11:41:26;;;;;;;4.13;2.67;;;;;;;;;;5038564;28;20119;-45
2022/12/04 11:43:53;;;;;;;5.72;3.58;;;;;;;;;;5043449;28;20053;-47
2022/12/04 11:46:21;;;;;;;4.10;2.92;;;;;;;;;;5034742;28;20033;-44
2022/12/04 11:48:47;;;;;;;6.55;3.17;;;;;;;;;;5043570;28;20538;-45
2022/12/04 11:51:31;;;;;;;5.63;2.90;;;;;;;;;;5041650;28;20124;-44
2022/12/04 11:54:11;;;;;;;6.82;3.03;;;;;;;;;;5051253;28;20063;-44
2022/12/04 11:56:42;;;;;;;3.97;3.13;;;;;;;;;;5058152;28;20047;-45
2022/12/04 11:59:29;;;;;;;6.87;3.10;;;;;;;;;;5063185;28;20024;-43
2022/12/04 12:02:14;;;;;;;5.35;3.00;;;;;;;;;;5056798;28;20086;-46
2022/12/04 12:04:49;;;;;;;4.40;2.97;;;;;;;;;;5060860;28;20053;-45
2022/12/04 12:07:23;;;;;;;4.15;2.80;;;;;;;;;;5056644;28;20033;-45
2022/12/04 12:09:50;;;;;;;6.78;3.20;;;;;;;;;;5059818;28;20029;-43
2022/12/04 12:12:35;;;;;;;4.95;3.30;;;;;;;;;;5055892;28;20055;-44
2022/12/04 12:15:28;;;;;;;8.10;2.90;;;;;;;;;;5056671;28;20036;-44
2022/12/04 12:17:53;;;;;;;;;;;;;;;;;;5034177;28;20059;-47
2022/12/04 12:20:27;;;;;;;6.38;3.30;;;;;;;;;;5066727;28;19904;-44
2022/12/04 12:22:56;;;;;;;5.05;3.25;;;;;;;;;;5066963;28;20025;-46
2022/12/04 12:25:27;;;;;;;4.55;3.13;;;;;;;;;;5065124;28;20035;-44
2022/12/04 12:28:12;;;;;;;5.53;2.60;;;;;;;;;;5058640;28;20521;-46
2022/12/04 12:30:47;;;;;;;5.00;3.03;;;;;;;;;;5065243;28;20037;-44
2022/12/04 12:33:13;;;;;;;6.15;2.95;;;;;;;;;;5065663;28;20039;-44
2022/12/04 12:35:43;;;;;;;4.03;2.92;;;;;;;;;;5058369;28;20393;-44
2022/12/04 12:38:17;;;;;;;6.68;4.18;;;;;;;;;;5054342;28;20027;-44
2022/12/04 12:40:55;;;;;;;5.07;3.30;;;;;;;;;;5057592;28;20525;-45
2022/12/04 12:43:29;;;;;;;4.35;3.10;;;;;;;;;;5063639;28;20028;-44
2022/12/04 12:46:10;;;;;;;3.40;2.63;;;;;;;;;;5054323;28;20040;-47
2022/12/04 12:48:44;;;;;;;5.50;2.80;;;;;;;;;;5060559;28;20491;-45
2022/12/04 12:51:27;;;;;;;5.15;3.40;;;;;;;;;;5050729;28;20025;-44
2022/12/04 12:53:55;;;;;;;4.28;3.28;;;;;;;;;;5057945;28;20055;-47
2022/12/04 12:56:30;;;;;;;4.57;3.00;;;;;;;;;;5056365;28;20032;-46
2022/12/04 12:58:58;;;;;;;4.65;3.35;;;;;;;;;;5050990;28;20094;-44
2022/12/04 13:01:38;;;;;;;5.28;3.38;;;;;;;;;;5057038;28;20071;-43
2022/12/04 13:04:10;;;;;;;7.35;3.72;;;;;;;;;;5059688;28;20107;-43
2022/12/04 13:06:38;;;;;;;4.18;2.95;;;;;;;;;;5054756;28;20524;-44
2022/12/04 13:09:07;;;;;;;4.57;2.70;;;;;;;;;;5052779;28;20051;-45
2022/12/04 13:11:33;;;;;;;4.20;3.13;;;;;;;;;;5056693;28;20111;-45
2022/12/04 13:14:02;;;;;;;3.63;2.60;;;;;;;;;;5056294;28;20021;-44
2022/12/04 13:16:35;;;;;;;4.90;2.97;;;;;;;;;;5058006;28;20064;-43
2022/12/04 13:19:07;;;;;;;5.03;2.97;;;;;;;;;;5054291;28;20416;-44
2022/12/04 13:21:59;;;;;;;4.75;3.28;;;;;;;;;;5041480;28;20044;-43
2022/12/04 13:24:44;;;;;;;4.75;3.03;;;;;;;;;;5058357;28;20032;-43
2022/12/04 13:27:29;;;;;;;4.90;3.13;;;;;;;;;;5066794;28;20033;-44
2022/12/04 13:29:58;;;;;;;5.03;3.30;;;;;;;;;;5050535;28;20025;-46
2022/12/04 13:32:23;;;;;;;5.38;3.50;;;;;;;;;;5066771;28;20052;-43
2022/12/04 13:34:58;;;;;;;3.90;3.00;;;;;;;;;;5067339;28;20546;-45
2022/12/04 13:37:42;;;;;;;5.38;3.13;;;;;;;;;;5035258;28;20382;-44
2022/12/04 13:40:08;;;;;;;6.40;3.00;;;;;;;;;;5055716;28;20048;-43
2022/12/04 13:42:34;;;;;;;3.88;3.08;;;;;;;;;;5057892;28;20033;-43
2022/12/04 13:45:06;;;;;;;4.53;3.15;;;;;;;;;;5057828;28;20029;-44
2022/12/04 13:47:33;;;;;;;4.20;2.92;;;;;;;;;;5058958;28;20124;-44
2022/12/04 13:50:25;;;;;;;5.65;3.22;;;;;;;;;;5054871;28;20054;-45
2022/12/04 13:52:52;;;;;;;3.58;2.80;;;;;;;;;;5058769;28;20494;-45
2022/12/04 13:55:32;;;;;;;5.10;3.38;;;;;;;;;;5058804;28;20106;-44
2022/12/04 13:58:02;;;;;;;4.60;3.08;;;;;;;;;;5060334;28;20035;-45
2022/12/04 14:00:35;;;;;;;5.22;3.15;;;;;;;;;;5057025;28;20269;-44
2022/12/04 14:03:06;;;;;;;7.95;3.35;;;;;;;;;;5055974;28;20390;-43
2022/12/04 14:05:40;;;;;;;4.88;3.28;;;;;;;;;;5058168;28;21016;-44
2022/12/04 14:08:07;;;;;;;6.20;2.92;;;;;;;;;;5068006;28;20076;-43
2022/12/04 14:10:37;;;;;;;6.18;3.83;;;;;;;;;;5060046;28;20025;-44
2022/12/04 14:13:12;;;;;;;5.30;3.22;;;;;;;;;;5065835;28;20060;-44
2022/12/04 14:15:39;;;;;;;5.05;2.80;;;;;;;;;;5071115;28;20025;-43
2022/12/04 14:18:11;;;;;;;16.23;3.92;;;;;;;;;;5058696;28;20040;-43
2022/12/04 14:20:37;;;;;;;4.53;3.33;;;;;;;;;;5070415;28;20457;-44
2022/12/04 14:23:26;;;;;;;6.10;3.25;;;;;;;;;;5065227;28;20044;-44
2022/12/04 14:25:56;;;;;;;5.20;3.55;;;;;;;;;;5069733;28;20047;-46
2022/12/04 14:28:32;;;;;;;5.80;3.88;;;;;;;;;;5055239;28;20498;-44
2022/12/04 14:31:04;;;;;;;6.70;3.30;;;;;;;;;;5057379;28;20512;-47
2022/12/04 14:33:31;;;;;;;5.00;2.70;;;;;;;;;;5066703;28;20126;-44
2022/12/04 14:36:07;;;;;;;6.22;3.70;;;;;;;;;;5063964;28;20052;-47
2022/12/04 14:38:33;;;;;;;8.80;3.42;;;;;;;;;;5054945;28;20036;-44
2022/12/04 14:41:00;;;;;;;5.93;3.30;;;;;;;;;;5058670;28;20487;-45
2022/12/04 14:43:44;;;;;;;5.28;3.10;;;;;;;;;;5054496;28;20042;-44
2022/12/04 14:46:31;;;;;;;6.50;3.28;;;;;;;;;;5057583;28;20091;-44
2022/12/04 14:49:03;;;;;;;4.72;2.75;;;;;;;;;;5058212;28;20025;-46
2022/12/04 14:51:36;;;;;;;6.75;2.88;;;;;;;;;;5056258;28;20027;-44
2022/12/04 14:54:28;;;;;;;4.60;3.17;;;;;;;;;;5056851;28;20048;-44
2022/12/04 14:57:01;;;;;;;6.45;3.20;;;;;;;;;;5054291;28;20033;-47
2022/12/04 14:59:43;;;;;;;5.90;3.08;;;;;;;;;;5059362;28;20408;-44
2022/12/04 15:02:12;;;;;;;6.93;3.45;;;;;;;;;;5057290;28;20498;-44
2022/12/04 15:04:44;;;;;;;9.57;3.55;;;;;;;;;;5061120;28;20064;-44
2022/12/04 15:07:10;;;;;;;4.43;3.13;;;;;;;;;;5056700;28;20687;-46
2022/12/04 15:12:35;;;;;;;8.25;3.67;;;;;;;;;;5053532;28;20153;-44
2022/12/04 15:15:04;;;;;;;16.35;4.03;;;;;;;;;;5059584;28;20501;-45